KLBF Airport (North Platte Rgnl Airport Lee Bird Field) Information

FAA: LBF - ICAO: KLBF

KLBF Airport Location

State Nebraska
County Lincoln
City North Platte
KLBF Airport is 3 miles east of North Platte, NE.
Latitude 41-07-34.4000N
Longitude 100-41-01.2000W
Elevation 2,777ft

KLBF Airport METARs

METAR KLBF 060709Z AUTO 04014G25KT 10SM -RA SCT009 BKN120 22/19 A2997 RMK AO2 P0000 T02170194
Altimeter 29.97"
Temperature 21.7°C (71.1°F)
Wind 40° at 14KT with gusts to 25KT
Clouds scattered at 900ft broken at 12,000ft
Visibility 10.0mi
Time observed: 2022-07-06T07:09:00Z

KLBF Airport Details

Status Operational
Activation N/A
Ownership Public
Usage Public
Chart OMAHA
ATC on-site No
Beacon schedule sunset-sunrise
Beacon color clear green

KLBF Airport Contacts

Owner NORTH PLATTE AIRPORT AUTH
Owner address PO BOX 1517, NORTH PLATTE, NE 69103
Owner phone 308-532-1900
Manager N/A
Manager address N/A, N/A
Manager phone N/A

KLBF Airport (North Platte Rgnl Airport Lee Bird Field) Radio Frequencies

KLBF (Airport) Radio Frequencies

UNICOM 123
Common traffic advisory frequency (CTAF) 123